sensor_id;sensor_type;location;lat;lon;timestamp;P1;durP1;ratioP1;P2;durP2;ratioP2
12038;SDS011;6080;48.818;9.526;2022-08-30T00:01:08;36.70;;;34.43;;
12038;SDS011;6080;48.818;9.526;2022-08-30T00:03:38;37.07;;;34.80;;
12038;SDS011;6080;48.818;9.526;2022-08-30T00:06:17;38.17;;;35.77;;
12038;SDS011;6080;48.818;9.526;2022-08-30T00:08:44;37.40;;;34.70;;
12038;SDS011;6080;48.818;9.526;2022-08-30T00:11:12;34.70;;;32.00;;
12038;SDS011;6080;48.818;9.526;2022-08-30T00:13:41;31.23;;;29.10;;
12038;SDS011;6080;48.818;9.526;2022-08-30T00:16:08;27.73;;;26.07;;
12038;SDS011;6080;48.818;9.526;2022-08-30T00:18:36;20.67;;;19.27;;
12038;SDS011;6080;48.818;9.526;2022-08-30T00:21:03;20.17;;;18.87;;
12038;SDS011;6080;48.818;9.526;2022-08-30T00:23:31;18.57;;;17.37;;
12038;SDS011;6080;48.818;9.526;2022-08-30T00:25:57;18.97;;;17.63;;
12038;SDS011;6080;48.818;9.526;2022-08-30T00:28:24;19.03;;;17.57;;
12038;SDS011;6080;48.818;9.526;2022-08-30T00:30:50;19.17;;;17.87;;
12038;SDS011;6080;48.818;9.526;2022-08-30T00:33:16;19.30;;;18.03;;
12038;SDS011;6080;48.818;9.526;2022-08-30T00:35:42;101.43;;;95.00;;
12038;SDS011;6080;48.818;9.526;2022-08-30T00:38:09;118.53;;;111.33;;
12038;SDS011;6080;48.818;9.526;2022-08-30T00:40:36;393.70;;;369.37;;
12038;SDS011;6080;48.818;9.526;2022-08-30T00:43:06;381.53;;;357.67;;
12038;SDS011;6080;48.818;9.526;2022-08-30T00:45:35;353.43;;;332.87;;
12038;SDS011;6080;48.818;9.526;2022-08-30T00:48:02;246.30;;;232.30;;
12038;SDS011;6080;48.818;9.526;2022-08-30T00:50:49;252.50;;;238.40;;
12038;SDS011;6080;48.818;9.526;2022-08-30T00:53:25;155.53;;;146.93;;
12038;SDS011;6080;48.818;9.526;2022-08-30T00:55:53;140.47;;;132.70;;
12038;SDS011;6080;48.818;9.526;2022-08-30T00:58:20;204.27;;;193.37;;
12038;SDS011;6080;48.818;9.526;2022-08-30T01:00:51;140.97;;;133.00;;
12038;SDS011;6080;48.818;9.526;2022-08-30T01:03:19;86.07;;;81.47;;
12038;SDS011;6080;48.818;9.526;2022-08-30T01:05:46;65.03;;;61.57;;
12038;SDS011;6080;48.818;9.526;2022-08-30T01:08:13;77.73;;;72.80;;
12038;SDS011;6080;48.818;9.526;2022-08-30T01:10:40;46.43;;;43.50;;
12038;SDS011;6080;48.818;9.526;2022-08-30T01:13:06;28.10;;;25.97;;
12038;SDS011;6080;48.818;9.526;2022-08-30T01:15:33;21.03;;;19.57;;
12038;SDS011;6080;48.818;9.526;2022-08-30T01:18:00;26.77;;;24.73;;
12038;SDS011;6080;48.818;9.526;2022-08-30T01:21:01;22.87;;;20.90;;
12038;SDS011;6080;48.818;9.526;2022-08-30T01:23:37;22.20;;;20.57;;
12038;SDS011;6080;48.818;9.526;2022-08-30T01:26:06;20.90;;;19.10;;
12038;SDS011;6080;48.818;9.526;2022-08-30T01:28:32;17.07;;;15.77;;
12038;SDS011;6080;48.818;9.526;2022-08-30T01:30:59;23.63;;;21.87;;
12038;SDS011;6080;48.818;9.526;2022-08-30T01:33:25;26.43;;;24.27;;
12038;SDS011;6080;48.818;9.526;2022-08-30T01:35:58;22.80;;;20.90;;
12038;SDS011;6080;48.818;9.526;2022-08-30T01:38:27;19.33;;;17.87;;
12038;SDS011;6080;48.818;9.526;2022-08-30T01:40:59;17.83;;;16.40;;
12038;SDS011;6080;48.818;9.526;2022-08-30T01:43:33;19.60;;;18.30;;
12038;SDS011;6080;48.818;9.526;2022-08-30T01:45:59;16.90;;;15.37;;
12038;SDS011;6080;48.818;9.526;2022-08-30T01:48:26;11.30;;;10.40;;
12038;SDS011;6080;48.818;9.526;2022-08-30T01:50:53;14.03;;;13.03;;
12038;SDS011;6080;48.818;9.526;2022-08-30T01:53:19;13.87;;;12.67;;
12038;SDS011;6080;48.818;9.526;2022-08-30T01:55:46;12.40;;;11.50;;
12038;SDS011;6080;48.818;9.526;2022-08-30T01:58:12;16.40;;;13.63;;
12038;SDS011;6080;48.818;9.526;2022-08-30T02:00:38;13.03;;;11.93;;
12038;SDS011;6080;48.818;9.526;2022-08-30T02:03:04;13.30;;;12.20;;
12038;SDS011;6080;48.818;9.526;2022-08-30T02:05:31;14.53;;;13.13;;
12038;SDS011;6080;48.818;9.526;2022-08-30T02:07:57;14.67;;;13.20;;
12038;SDS011;6080;48.818;9.526;2022-08-30T02:10:23;13.33;;;12.13;;
12038;SDS011;6080;48.818;9.526;2022-08-30T02:12:49;14.77;;;13.13;;
12038;SDS011;6080;48.818;9.526;2022-08-30T02:15:16;11.80;;;10.90;;
12038;SDS011;6080;48.818;9.526;2022-08-30T02:17:42;13.03;;;11.97;;
12038;SDS011;6080;48.818;9.526;2022-08-30T02:20:08;15.97;;;14.70;;
12038;SDS011;6080;48.818;9.526;2022-08-30T02:22:35;18.07;;;14.50;;
12038;SDS011;6080;48.818;9.526;2022-08-30T02:25:03;15.17;;;14.03;;
12038;SDS011;6080;48.818;9.526;2022-08-30T02:27:31;12.07;;;11.07;;
12038;SDS011;6080;48.818;9.526;2022-08-30T02:29:58;14.50;;;13.30;;
12038;SDS011;6080;48.818;9.526;2022-08-30T02:32:24;21.03;;;19.40;;
12038;SDS011;6080;48.818;9.526;2022-08-30T02:34:49;19.37;;;18.07;;
12038;SDS011;6080;48.818;9.526;2022-08-30T02:37:15;23.70;;;22.27;;
12038;SDS011;6080;48.818;9.526;2022-08-30T02:39:41;25.93;;;24.33;;
12038;SDS011;6080;48.818;9.526;2022-08-30T02:42:07;29.93;;;27.50;;
12038;SDS011;6080;48.818;9.526;2022-08-30T02:44:33;27.83;;;26.03;;
12038;SDS011;6080;48.818;9.526;2022-08-30T02:46:59;29.97;;;28.07;;
12038;SDS011;6080;48.818;9.526;2022-08-30T02:49:24;28.50;;;26.60;;
12038;SDS011;6080;48.818;9.526;2022-08-30T02:51:50;29.47;;;27.77;;
12038;SDS011;6080;48.818;9.526;2022-08-30T02:54:16;31.67;;;29.63;;
12038;SDS011;6080;48.818;9.526;2022-08-30T02:56:48;34.00;;;31.83;;
12038;SDS011;6080;48.818;9.526;2022-08-30T02:59:14;33.63;;;31.70;;
12038;SDS011;6080;48.818;9.526;2022-08-30T03:01:41;31.23;;;29.23;;
12038;SDS011;6080;48.818;9.526;2022-08-30T03:04:07;28.30;;;26.60;;
12038;SDS011;6080;48.818;9.526;2022-08-30T03:06:34;26.47;;;24.67;;
12038;SDS011;6080;48.818;9.526;2022-08-30T03:09:00;22.37;;;20.87;;
12038;SDS011;6080;48.818;9.526;2022-08-30T03:11:26;17.63;;;16.43;;
12038;SDS011;6080;48.818;9.526;2022-08-30T03:13:52;18.90;;;17.50;;
12038;SDS011;6080;48.818;9.526;2022-08-30T03:16:18;16.37;;;15.07;;
12038;SDS011;6080;48.818;9.526;2022-08-30T03:18:46;18.23;;;17.03;;
12038;SDS011;6080;48.818;9.526;2022-08-30T03:21:12;16.67;;;15.17;;
12038;SDS011;6080;48.818;9.526;2022-08-30T03:23:41;26.77;;;24.90;;
12038;SDS011;6080;48.818;9.526;2022-08-30T03:26:07;22.77;;;21.07;;
12038;SDS011;6080;48.818;9.526;2022-08-30T03:28:37;23.40;;;21.50;;
12038;SDS011;6080;48.818;9.526;2022-08-30T03:31:02;29.27;;;27.17;;
12038;SDS011;6080;48.818;9.526;2022-08-30T03:33:29;37.20;;;35.00;;
12038;SDS011;6080;48.818;9.526;2022-08-30T03:35:55;22.53;;;21.00;;
12038;SDS011;6080;48.818;9.526;2022-08-30T03:38:21;39.17;;;36.77;;
12038;SDS011;6080;48.818;9.526;2022-08-30T03:40:48;39.93;;;37.67;;
12038;SDS011;6080;48.818;9.526;2022-08-30T03:43:14;25.17;;;23.20;;
12038;SDS011;6080;48.818;9.526;2022-08-30T03:45:40;26.00;;;24.33;;
12038;SDS011;6080;48.818;9.526;2022-08-30T03:48:07;24.93;;;23.03;;
12038;SDS011;6080;48.818;9.526;2022-08-30T03:50:34;25.37;;;23.30;;
12038;SDS011;6080;48.818;9.526;2022-08-30T03:53:01;19.70;;;18.20;;
12038;SDS011;6080;48.818;9.526;2022-08-30T03:55:27;23.93;;;21.67;;
12038;SDS011;6080;48.818;9.526;2022-08-30T03:57:54;17.53;;;16.30;;
12038;SDS011;6080;48.818;9.526;2022-08-30T04:00:20;18.93;;;17.50;;
12038;SDS011;6080;48.818;9.526;2022-08-30T04:02:46;18.97;;;17.50;;
12038;SDS011;6080;48.818;9.526;2022-08-30T04:05:12;18.90;;;17.63;;
12038;SDS011;6080;48.818;9.526;2022-08-30T04:07:39;23.70;;;21.97;;
12038;SDS011;6080;48.818;9.526;2022-08-30T04:10:05;16.33;;;14.70;;
12038;SDS011;6080;48.818;9.526;2022-08-30T04:12:32;22.80;;;20.73;;
12038;SDS011;6080;48.818;9.526;2022-08-30T04:14:59;20.80;;;18.70;;
12038;SDS011;6080;48.818;9.526;2022-08-30T04:17:24;17.43;;;16.10;;
12038;SDS011;6080;48.818;9.526;2022-08-30T04:19:50;17.23;;;16.13;;
12038;SDS011;6080;48.818;9.526;2022-08-30T04:22:17;24.57;;;22.83;;
12038;SDS011;6080;48.818;9.526;2022-08-30T04:24:43;20.50;;;18.97;;
12038;SDS011;6080;48.818;9.526;2022-08-30T04:27:09;21.90;;;20.40;;
12038;SDS011;6080;48.818;9.526;2022-08-30T04:29:35;20.87;;;18.93;;
12038;SDS011;6080;48.818;9.526;2022-08-30T04:32:01;19.53;;;17.83;;
12038;SDS011;6080;48.818;9.526;2022-08-30T04:34:26;17.93;;;16.53;;
12038;SDS011;6080;48.818;9.526;2022-08-30T04:36:52;20.83;;;19.13;;
12038;SDS011;6080;48.818;9.526;2022-08-30T04:39:18;21.67;;;19.87;;
12038;SDS011;6080;48.818;9.526;2022-08-30T04:41:45;21.07;;;19.57;;
12038;SDS011;6080;48.818;9.526;2022-08-30T04:44:11;20.73;;;19.07;;
12038;SDS011;6080;48.818;9.526;2022-08-30T04:46:36;25.97;;;24.23;;
12038;SDS011;6080;48.818;9.526;2022-08-30T04:49:03;21.20;;;19.50;;
12038;SDS011;6080;48.818;9.526;2022-08-30T04:51:29;24.13;;;22.27;;
12038;SDS011;6080;48.818;9.526;2022-08-30T04:53:55;21.37;;;19.97;;
12038;SDS011;6080;48.818;9.526;2022-08-30T04:56:21;18.57;;;17.07;;
12038;SDS011;6080;48.818;9.526;2022-08-30T04:58:48;18.10;;;16.80;;
12038;SDS011;6080;48.818;9.526;2022-08-30T05:01:17;14.70;;;13.30;;
12038;SDS011;6080;48.818;9.526;2022-08-30T05:03:46;12.53;;;11.43;;
12038;SDS011;6080;48.818;9.526;2022-08-30T05:06:14;15.60;;;14.30;;
12038;SDS011;6080;48.818;9.526;2022-08-30T05:08:40;41.83;;;39.13;;
12038;SDS011;6080;48.818;9.526;2022-08-30T05:11:06;82.03;;;77.53;;
12038;SDS011;6080;48.818;9.526;2022-08-30T05:13:33;107.73;;;101.73;;
12038;SDS011;6080;48.818;9.526;2022-08-30T05:15:59;33.60;;;31.57;;
12038;SDS011;6080;48.818;9.526;2022-08-30T05:18:25;26.03;;;24.10;;
12038;SDS011;6080;48.818;9.526;2022-08-30T05:21:11;16.37;;;14.87;;
12038;SDS011;6080;48.818;9.526;2022-08-30T05:23:42;41.37;;;38.63;;
12038;SDS011;6080;48.818;9.526;2022-08-30T05:26:10;16.77;;;15.23;;
12038;SDS011;6080;48.818;9.526;2022-08-30T05:28:41;22.53;;;20.73;;
12038;SDS011;6080;48.818;9.526;2022-08-30T05:31:12;18.20;;;16.77;;
12038;SDS011;6080;48.818;9.526;2022-08-30T05:33:45;19.17;;;17.47;;
12038;SDS011;6080;48.818;9.526;2022-08-30T05:36:13;14.50;;;13.17;;
12038;SDS011;6080;48.818;9.526;2022-08-30T05:38:40;14.60;;;13.07;;
12038;SDS011;6080;48.818;9.526;2022-08-30T05:41:06;37.17;;;34.87;;
12038;SDS011;6080;48.818;9.526;2022-08-30T05:43:32;85.33;;;80.50;;
12038;SDS011;6080;48.818;9.526;2022-08-30T05:46:04;56.50;;;53.43;;
12038;SDS011;6080;48.818;9.526;2022-08-30T05:48:32;36.90;;;34.87;;
12038;SDS011;6080;48.818;9.526;2022-08-30T05:51:06;49.57;;;46.63;;
12038;SDS011;6080;48.818;9.526;2022-08-30T05:53:34;20.10;;;18.53;;
12038;SDS011;6080;48.818;9.526;2022-08-30T05:56:02;14.57;;;13.37;;
12038;SDS011;6080;48.818;9.526;2022-08-30T05:58:30;17.40;;;16.20;;
12038;SDS011;6080;48.818;9.526;2022-08-30T06:00:56;16.07;;;14.93;;
12038;SDS011;6080;48.818;9.526;2022-08-30T06:03:22;19.35;;;17.85;;
12038;SDS011;6080;48.818;9.526;2022-08-30T06:05:48;56.80;;;53.30;;
12038;SDS011;6080;48.818;9.526;2022-08-30T06:08:14;171.10;;;162.50;;
12038;SDS011;6080;48.818;9.526;2022-08-30T06:10:40;362.63;;;343.48;;
12038;SDS011;6080;48.818;9.526;2022-08-30T06:13:06;177.55;;;168.05;;
12038;SDS011;6080;48.818;9.526;2022-08-30T06:15:31;118.15;;;111.68;;
12038;SDS011;6080;48.818;9.526;2022-08-30T06:17:57;67.65;;;63.88;;
12038;SDS011;6080;48.818;9.526;2022-08-30T06:20:23;39.88;;;37.22;;
12038;SDS011;6080;48.818;9.526;2022-08-30T06:22:49;33.00;;;31.13;;
12038;SDS011;6080;48.818;9.526;2022-08-30T06:25:15;18.70;;;17.48;;
12038;SDS011;6080;48.818;9.526;2022-08-30T06:27:42;19.05;;;17.73;;
12038;SDS011;6080;48.818;9.526;2022-08-30T06:30:08;13.35;;;11.30;;
12038;SDS011;6080;48.818;9.526;2022-08-30T06:32:38;10.05;;;9.23;;
12038;SDS011;6080;48.818;9.526;2022-08-30T06:35:04;10.88;;;9.82;;
12038;SDS011;6080;48.818;9.526;2022-08-30T06:37:32;15.15;;;12.20;;
12038;SDS011;6080;48.818;9.526;2022-08-30T06:39:59;29.38;;;27.48;;
12038;SDS011;6080;48.818;9.526;2022-08-30T06:42:28;47.83;;;44.97;;
12038;SDS011;6080;48.818;9.526;2022-08-30T06:44:59;49.92;;;47.22;;
12038;SDS011;6080;48.818;9.526;2022-08-30T06:47:27;37.65;;;35.28;;
12038;SDS011;6080;48.818;9.526;2022-08-30T06:49:53;22.92;;;21.23;;
12038;SDS011;6080;48.818;9.526;2022-08-30T06:52:19;14.27;;;12.82;;
12038;SDS011;6080;48.818;9.526;2022-08-30T06:54:45;10.93;;;8.82;;
12038;SDS011;6080;48.818;9.526;2022-08-30T06:57:11;7.72;;;7.10;;
12038;SDS011;6080;48.818;9.526;2022-08-30T06:59:37;9.32;;;8.68;;
12038;SDS011;6080;48.818;9.526;2022-08-30T07:02:04;11.90;;;10.85;;
12038;SDS011;6080;48.818;9.526;2022-08-30T07:04:32;17.23;;;16.00;;
12038;SDS011;6080;48.818;9.526;2022-08-30T07:06:58;14.27;;;13.05;;
12038;SDS011;6080;48.818;9.526;2022-08-30T07:09:24;14.02;;;12.75;;
12038;SDS011;6080;48.818;9.526;2022-08-30T07:11:51;15.40;;;14.18;;
12038;SDS011;6080;48.818;9.526;2022-08-30T07:14:17;14.52;;;13.57;;
12038;SDS011;6080;48.818;9.526;2022-08-30T07:16:45;11.55;;;10.60;;
12038;SDS011;6080;48.818;9.526;2022-08-30T07:19:11;9.48;;;8.68;;
12038;SDS011;6080;48.818;9.526;2022-08-30T07:21:37;11.52;;;10.50;;
12038;SDS011;6080;48.818;9.526;2022-08-30T07:24:08;13.70;;;12.52;;
12038;SDS011;6080;48.818;9.526;2022-08-30T07:26:36;15.75;;;14.65;;
12038;SDS011;6080;48.818;9.526;2022-08-30T07:29:08;14.25;;;13.35;;
12038;SDS011;6080;48.818;9.526;2022-08-30T07:31:34;15.23;;;14.13;;
12038;SDS011;6080;48.818;9.526;2022-08-30T07:34:05;15.50;;;14.15;;
12038;SDS011;6080;48.818;9.526;2022-08-30T07:36:32;9.50;;;8.75;;
12038;SDS011;6080;48.818;9.526;2022-08-30T07:38:59;9.65;;;8.20;;
12038;SDS011;6080;48.818;9.526;2022-08-30T07:41:26;8.48;;;7.88;;
12038;SDS011;6080;48.818;9.526;2022-08-30T07:43:56;9.10;;;7.35;;
12038;SDS011;6080;48.818;9.526;2022-08-30T07:46:23;9.30;;;7.88;;
12038;SDS011;6080;48.818;9.526;2022-08-30T07:48:49;14.70;;;13.60;;
12038;SDS011;6080;48.818;9.526;2022-08-30T07:51:17;10.05;;;9.15;;
12038;SDS011;6080;48.818;9.526;2022-08-30T07:53:45;9.73;;;7.90;;
12038;SDS011;6080;48.818;9.526;2022-08-30T07:56:11;8.23;;;7.53;;
12038;SDS011;6080;48.818;9.526;2022-08-30T07:58:37;12.50;;;11.70;;
12038;SDS011;6080;48.818;9.526;2022-08-30T08:01:04;10.43;;;8.95;;
12038;SDS011;6080;48.818;9.526;2022-08-30T08:03:32;10.40;;;9.40;;
12038;SDS011;6080;48.818;9.526;2022-08-30T08:05:59;13.00;;;12.13;;
12038;SDS011;6080;48.818;9.526;2022-08-30T08:08:29;11.82;;;10.85;;
12038;SDS011;6080;48.818;9.526;2022-08-30T08:10:56;11.18;;;10.23;;
12038;SDS011;6080;48.818;9.526;2022-08-30T08:13:23;8.48;;;7.68;;
12038;SDS011;6080;48.818;9.526;2022-08-30T08:15:49;11.18;;;7.55;;
12038;SDS011;6080;48.818;9.526;2022-08-30T08:18:15;8.57;;;7.88;;
12038;SDS011;6080;48.818;9.526;2022-08-30T08:20:41;11.93;;;10.90;;
12038;SDS011;6080;48.818;9.526;2022-08-30T08:23:06;11.00;;;10.07;;
12038;SDS011;6080;48.818;9.526;2022-08-30T08:25:36;9.93;;;9.23;;
12038;SDS011;6080;48.818;9.526;2022-08-30T08:28:04;9.48;;;8.63;;
12038;SDS011;6080;48.818;9.526;2022-08-30T08:30:32;10.25;;;9.40;;
12038;SDS011;6080;48.818;9.526;2022-08-30T08:32:59;10.27;;;9.27;;
12038;SDS011;6080;48.818;9.526;2022-08-30T08:35:26;12.00;;;11.13;;
12038;SDS011;6080;48.818;9.526;2022-08-30T08:37:52;12.32;;;11.32;;
12038;SDS011;6080;48.818;9.526;2022-08-30T08:40:17;10.15;;;9.35;;
12038;SDS011;6080;48.818;9.526;2022-08-30T08:42:56;12.10;;;11.05;;
12038;SDS011;6080;48.818;9.526;2022-08-30T08:50:55;7.35;;;6.70;;
12038;SDS011;6080;48.818;9.526;2022-08-30T08:53:40;9.00;;;8.15;;
12038;SDS011;6080;48.818;9.526;2022-08-30T08:56:13;9.23;;;8.43;;
12038;SDS011;6080;48.818;9.526;2022-08-30T09:01:11;9.02;;;8.27;;
12038;SDS011;6080;48.818;9.526;2022-08-30T09:03:39;11.80;;;10.77;;
12038;SDS011;6080;48.818;9.526;2022-08-30T09:06:14;13.60;;;12.52;;
12038;SDS011;6080;48.818;9.526;2022-08-30T09:08:53;11.13;;;10.43;;
12038;SDS011;6080;48.818;9.526;2022-08-30T09:11:20;13.82;;;12.85;;
12038;SDS011;6080;48.818;9.526;2022-08-30T09:13:49;11.95;;;10.95;;
12038;SDS011;6080;48.818;9.526;2022-08-30T09:19:09;15.98;;;14.77;;
12038;SDS011;6080;48.818;9.526;2022-08-30T09:21:36;16.60;;;15.10;;
12038;SDS011;6080;48.818;9.526;2022-08-30T09:24:03;19.40;;;18.05;;
12038;SDS011;6080;48.818;9.526;2022-08-30T09:26:31;27.38;;;25.75;;
12038;SDS011;6080;48.818;9.526;2022-08-30T09:28:59;25.23;;;23.63;;
12038;SDS011;6080;48.818;9.526;2022-08-30T09:31:27;39.35;;;37.10;;
12038;SDS011;6080;48.818;9.526;2022-08-30T09:36:33;28.27;;;26.45;;
12038;SDS011;6080;48.818;9.526;2022-08-30T09:39:07;19.17;;;17.90;;
12038;SDS011;6080;48.818;9.526;2022-08-30T09:41:45;23.45;;;22.10;;
12038;SDS011;6080;48.818;9.526;2022-08-30T09:44:21;36.33;;;33.95;;
12038;SDS011;6080;48.818;9.526;2022-08-30T09:46:52;49.70;;;46.97;;
12038;SDS011;6080;48.818;9.526;2022-08-30T09:49:52;61.03;;;57.67;;
12038;SDS011;6080;48.818;9.526;2022-08-30T09:55:20;53.28;;;50.38;;
12038;SDS011;6080;48.818;9.526;2022-08-30T10:01:10;50.63;;;47.90;;
12038;SDS011;6080;48.818;9.526;2022-08-30T10:06:22;28.48;;;26.77;;
12038;SDS011;6080;48.818;9.526;2022-08-30T10:17:35;13.02;;;12.15;;
12038;SDS011;6080;48.818;9.526;2022-08-30T10:25:33;11.52;;;10.52;;
12038;SDS011;6080;48.818;9.526;2022-08-30T10:28:03;21.05;;;19.80;;
12038;SDS011;6080;48.818;9.526;2022-08-30T10:30:39;30.30;;;28.38;;
12038;SDS011;6080;48.818;9.526;2022-08-30T10:33:22;32.28;;;30.38;;
12038;SDS011;6080;48.818;9.526;2022-08-30T10:35:55;45.28;;;42.92;;
12038;SDS011;6080;48.818;9.526;2022-08-30T10:41:18;52.92;;;50.28;;
12038;SDS011;6080;48.818;9.526;2022-08-30T10:46:43;18.05;;;16.98;;
12038;SDS011;6080;48.818;9.526;2022-08-30T10:49:23;29.77;;;28.08;;
12038;SDS011;6080;48.818;9.526;2022-08-30T10:54:41;45.45;;;42.88;;
12038;SDS011;6080;48.818;9.526;2022-08-30T10:57:12;46.65;;;44.15;;
12038;SDS011;6080;48.818;9.526;2022-08-30T10:59:48;23.40;;;22.02;;
12038;SDS011;6080;48.818;9.526;2022-08-30T11:02:34;24.60;;;23.25;;
12038;SDS011;6080;48.818;9.526;2022-08-30T11:07:58;67.88;;;64.15;;
12038;SDS011;6080;48.818;9.526;2022-08-30T11:10:47;44.90;;;42.10;;
12038;SDS011;6080;48.818;9.526;2022-08-30T11:13:28;140.73;;;133.88;;
12038;SDS011;6080;48.818;9.526;2022-08-30T11:24:00;253.57;;;240.93;;
12038;SDS011;6080;48.818;9.526;2022-08-30T11:26:49;350.85;;;332.38;;
12038;SDS011;6080;48.818;9.526;2022-08-30T11:29:29;333.40;;;315.77;;
12038;SDS011;6080;48.818;9.526;2022-08-30T11:31:59;354.25;;;335.50;;
12038;SDS011;6080;48.818;9.526;2022-08-30T11:34:56;354.85;;;336.40;;
12038;SDS011;6080;48.818;9.526;2022-08-30T11:40:03;303.80;;;288.15;;
12038;SDS011;6080;48.818;9.526;2022-08-30T11:42:47;212.70;;;202.25;;
12038;SDS011;6080;48.818;9.526;2022-08-30T11:47:48;165.18;;;156.98;;
12038;SDS011;6080;48.818;9.526;2022-08-30T11:50:24;120.72;;;114.88;;
12038;SDS011;6080;48.818;9.526;2022-08-30T11:55:32;209.70;;;198.82;;
12038;SDS011;6080;48.818;9.526;2022-08-30T12:03:42;184.45;;;175.40;;
12038;SDS011;6080;48.818;9.526;2022-08-30T12:06:09;150.40;;;142.93;;
12038;SDS011;6080;48.818;9.526;2022-08-30T12:08:41;172.88;;;164.38;;
12038;SDS011;6080;48.818;9.526;2022-08-30T12:16:08;219.02;;;207.93;;
12038;SDS011;6080;48.818;9.526;2022-08-30T12:18:41;208.27;;;197.48;;
12038;SDS011;6080;48.818;9.526;2022-08-30T12:29:13;301.17;;;285.73;;
12038;SDS011;6080;48.818;9.526;2022-08-30T12:31:43;283.35;;;268.58;;
12038;SDS011;6080;48.818;9.526;2022-08-30T12:34:15;336.77;;;319.20;;
12038;SDS011;6080;48.818;9.526;2022-08-30T12:36:49;310.90;;;294.95;;
12038;SDS011;6080;48.818;9.526;2022-08-30T12:39:20;254.02;;;241.45;;
12038;SDS011;6080;48.818;9.526;2022-08-30T12:41:48;260.38;;;247.32;;
12038;SDS011;6080;48.818;9.526;2022-08-30T12:44:16;281.08;;;267.00;;
12038;SDS011;6080;48.818;9.526;2022-08-30T12:46:44;308.13;;;292.27;;
12038;SDS011;6080;48.818;9.526;2022-08-30T12:49:17;284.90;;;270.55;;
12038;SDS011;6080;48.818;9.526;2022-08-30T12:51:44;316.80;;;299.85;;
12038;SDS011;6080;48.818;9.526;2022-08-30T12:54:18;253.60;;;240.57;;
12038;SDS011;6080;48.818;9.526;2022-08-30T12:57:02;246.65;;;234.50;;
12038;SDS011;6080;48.818;9.526;2022-08-30T12:59:39;225.40;;;214.35;;
12038;SDS011;6080;48.818;9.526;2022-08-30T13:02:25;211.80;;;201.43;;
12038;SDS011;6080;48.818;9.526;2022-08-30T13:05:51;217.07;;;206.48;;
12038;SDS011;6080;48.818;9.526;2022-08-30T13:16:05;172.82;;;164.00;;
12038;SDS011;6080;48.818;9.526;2022-08-30T13:18:48;217.00;;;206.18;;
12038;SDS011;6080;48.818;9.526;2022-08-30T13:23:48;226.25;;;215.32;;
12038;SDS011;6080;48.818;9.526;2022-08-30T13:26:15;193.13;;;183.57;;
12038;SDS011;6080;48.818;9.526;2022-08-30T13:28:51;291.70;;;276.80;;
12038;SDS011;6080;48.818;9.526;2022-08-30T13:31:23;336.30;;;318.80;;
12038;SDS011;6080;48.818;9.526;2022-08-30T13:33:50;351.35;;;332.60;;
12038;SDS011;6080;48.818;9.526;2022-08-30T13:36:29;325.35;;;308.58;;
12038;SDS011;6080;48.818;9.526;2022-08-30T13:38:57;218.70;;;208.07;;
12038;SDS011;6080;48.818;9.526;2022-08-30T13:41:25;190.50;;;181.18;;
12038;SDS011;6080;48.818;9.526;2022-08-30T13:43:51;176.90;;;168.00;;
12038;SDS011;6080;48.818;9.526;2022-08-30T13:46:17;178.82;;;170.07;;
12038;SDS011;6080;48.818;9.526;2022-08-30T13:48:45;176.63;;;167.85;;
12038;SDS011;6080;48.818;9.526;2022-08-30T13:51:11;239.70;;;227.98;;
12038;SDS011;6080;48.818;9.526;2022-08-30T13:53:38;232.75;;;221.38;;
12038;SDS011;6080;48.818;9.526;2022-08-30T13:56:04;251.13;;;238.65;;
12038;SDS011;6080;48.818;9.526;2022-08-30T13:58:31;200.48;;;190.48;;
12038;SDS011;6080;48.818;9.526;2022-08-30T14:00:57;175.90;;;167.40;;
12038;SDS011;6080;48.818;9.526;2022-08-30T14:03:24;209.35;;;199.10;;
12038;SDS011;6080;48.818;9.526;2022-08-30T14:05:50;225.13;;;214.10;;
12038;SDS011;6080;48.818;9.526;2022-08-30T14:08:21;235.88;;;224.15;;
12038;SDS011;6080;48.818;9.526;2022-08-30T14:10:52;216.45;;;205.65;;
12038;SDS011;6080;48.818;9.526;2022-08-30T14:13:18;208.85;;;198.48;;
12038;SDS011;6080;48.818;9.526;2022-08-30T14:15:44;196.98;;;187.32;;
12038;SDS011;6080;48.818;9.526;2022-08-30T14:18:12;176.90;;;168.30;;
12038;SDS011;6080;48.818;9.526;2022-08-30T14:20:38;253.65;;;240.52;;
12038;SDS011;6080;48.818;9.526;2022-08-30T14:23:04;336.42;;;319.08;;
12038;SDS011;6080;48.818;9.526;2022-08-30T14:25:30;198.80;;;189.18;;
12038;SDS011;6080;48.818;9.526;2022-08-30T14:27:56;148.43;;;141.18;;
12038;SDS011;6080;48.818;9.526;2022-08-30T14:30:22;56.10;;;53.20;;
12038;SDS011;6080;48.818;9.526;2022-08-30T14:32:48;46.83;;;44.35;;
12038;SDS011;6080;48.818;9.526;2022-08-30T14:35:14;36.05;;;34.05;;
12038;SDS011;6080;48.818;9.526;2022-08-30T14:37:42;31.92;;;30.33;;
12038;SDS011;6080;48.818;9.526;2022-08-30T14:40:12;22.05;;;20.85;;
12038;SDS011;6080;48.818;9.526;2022-08-30T14:42:38;7.82;;;7.13;;
12038;SDS011;6080;48.818;9.526;2022-08-30T14:45:04;6.93;;;6.43;;
12038;SDS011;6080;48.818;9.526;2022-08-30T14:47:31;8.10;;;7.50;;
12038;SDS011;6080;48.818;9.526;2022-08-30T14:49:57;11.27;;;10.48;;
12038;SDS011;6080;48.818;9.526;2022-08-30T14:52:26;18.85;;;17.58;;
12038;SDS011;6080;48.818;9.526;2022-08-30T14:54:52;24.58;;;23.17;;
12038;SDS011;6080;48.818;9.526;2022-08-30T14:57:19;28.65;;;26.88;;
12038;SDS011;6080;48.818;9.526;2022-08-30T14:59:45;30.05;;;28.55;;
12038;SDS011;6080;48.818;9.526;2022-08-30T15:02:11;28.08;;;26.42;;
12038;SDS011;6080;48.818;9.526;2022-08-30T15:04:36;32.13;;;30.13;;
12038;SDS011;6080;48.818;9.526;2022-08-30T15:07:02;27.48;;;25.90;;
12038;SDS011;6080;48.818;9.526;2022-08-30T15:09:28;26.30;;;24.70;;
12038;SDS011;6080;48.818;9.526;2022-08-30T15:11:55;39.22;;;37.03;;
12038;SDS011;6080;48.818;9.526;2022-08-30T15:14:22;32.83;;;31.02;;
12038;SDS011;6080;48.818;9.526;2022-08-30T15:16:49;14.00;;;12.75;;
12038;SDS011;6080;48.818;9.526;2022-08-30T15:19:17;7.07;;;6.50;;
12038;SDS011;6080;48.818;9.526;2022-08-30T15:21:44;7.65;;;7.15;;
12038;SDS011;6080;48.818;9.526;2022-08-30T15:24:13;37.53;;;35.45;;
12038;SDS011;6080;48.818;9.526;2022-08-30T15:26:41;169.07;;;160.73;;
12038;SDS011;6080;48.818;9.526;2022-08-30T15:29:09;185.27;;;176.05;;
12038;SDS011;6080;48.818;9.526;2022-08-30T15:31:37;255.10;;;241.93;;
12038;SDS011;6080;48.818;9.526;2022-08-30T15:34:05;282.55;;;268.38;;
12038;SDS011;6080;48.818;9.526;2022-08-30T15:36:31;254.75;;;241.77;;
12038;SDS011;6080;48.818;9.526;2022-08-30T15:38:58;251.30;;;238.82;;
12038;SDS011;6080;48.818;9.526;2022-08-30T15:41:25;227.07;;;215.85;;
12038;SDS011;6080;48.818;9.526;2022-08-30T15:43:53;171.55;;;162.98;;
12038;SDS011;6080;48.818;9.526;2022-08-30T15:46:24;118.78;;;112.93;;
12038;SDS011;6080;48.818;9.526;2022-08-30T15:49:07;59.40;;;56.45;;
12038;SDS011;6080;48.818;9.526;2022-08-30T15:51:39;104.55;;;99.55;;
12038;SDS011;6080;48.818;9.526;2022-08-30T15:54:06;91.97;;;87.50;;
12038;SDS011;6080;48.818;9.526;2022-08-30T15:56:33;32.63;;;30.92;;
12038;SDS011;6080;48.818;9.526;2022-08-30T15:58:59;28.25;;;26.65;;
12038;SDS011;6080;48.818;9.526;2022-08-30T16:01:25;57.60;;;54.15;;
12038;SDS011;6080;48.818;9.526;2022-08-30T16:03:50;12.93;;;12.15;;
12038;SDS011;6080;48.818;9.526;2022-08-30T16:06:18;6.13;;;5.72;;
12038;SDS011;6080;48.818;9.526;2022-08-30T16:08:49;6.57;;;6.07;;
12038;SDS011;6080;48.818;9.526;2022-08-30T16:11:17;7.82;;;7.22;;
12038;SDS011;6080;48.818;9.526;2022-08-30T16:13:47;10.00;;;9.23;;